sensor_id;sensor_type;location;lat;lon;timestamp;P1;durP1;ratioP1;P2;durP2;ratioP2
67562;SDS011;54392;53.556;49.214;2022-07-30T00:01:18;54.65;;;39.17;;
67562;SDS011;54392;53.556;49.214;2022-07-30T00:03:44;73.87;;;36.78;;
67562;SDS011;54392;53.556;49.214;2022-07-30T00:06:16;53.50;;;37.90;;
67562;SDS011;54392;53.556;49.214;2022-07-30T00:11:14;53.40;;;41.55;;
67562;SDS011;54392;53.556;49.214;2022-07-30T00:13:40;40.90;;;30.65;;
67562;SDS011;54392;53.556;49.214;2022-07-30T00:16:11;47.97;;;39.90;;
67562;SDS011;54392;53.556;49.214;2022-07-30T00:18:37;67.75;;;55.65;;
67562;SDS011;54392;53.556;49.214;2022-07-30T00:21:07;46.72;;;41.88;;
67562;SDS011;54392;53.556;49.214;2022-07-30T00:23:33;47.42;;;30.17;;
67562;SDS011;54392;53.556;49.214;2022-07-30T00:26:00;51.80;;;33.75;;
67562;SDS011;54392;53.556;49.214;2022-07-30T00:28:29;39.85;;;28.92;;
67562;SDS011;54392;53.556;49.214;2022-07-30T00:31:00;37.13;;;26.12;;
67562;SDS011;54392;53.556;49.214;2022-07-30T00:33:29;34.85;;;26.00;;
67562;SDS011;54392;53.556;49.214;2022-07-30T00:35:55;41.25;;;25.60;;
67562;SDS011;54392;53.556;49.214;2022-07-30T00:38:24;24.05;;;19.92;;
67562;SDS011;54392;53.556;49.214;2022-07-30T00:40:55;35.97;;;24.30;;
67562;SDS011;54392;53.556;49.214;2022-07-30T00:43:25;25.48;;;20.58;;
67562;SDS011;54392;53.556;49.214;2022-07-30T00:45:51;28.80;;;21.10;;
67562;SDS011;54392;53.556;49.214;2022-07-30T00:48:20;29.48;;;21.10;;
67562;SDS011;54392;53.556;49.214;2022-07-30T00:50:46;26.80;;;21.15;;
67562;SDS011;54392;53.556;49.214;2022-07-30T00:53:18;24.83;;;19.95;;
67562;SDS011;54392;53.556;49.214;2022-07-30T00:55:44;31.20;;;22.98;;
67562;SDS011;54392;53.556;49.214;2022-07-30T00:58:13;29.60;;;19.80;;
67562;SDS011;54392;53.556;49.214;2022-07-30T01:00:39;35.58;;;23.02;;
67562;SDS011;54392;53.556;49.214;2022-07-30T01:03:05;27.60;;;21.08;;
67562;SDS011;54392;53.556;49.214;2022-07-30T01:05:31;25.50;;;19.40;;
67562;SDS011;54392;53.556;49.214;2022-07-30T01:08:01;32.63;;;22.40;;
67562;SDS011;54392;53.556;49.214;2022-07-30T01:10:30;42.30;;;27.02;;
67562;SDS011;54392;53.556;49.214;2022-07-30T01:13:02;27.98;;;22.60;;
67562;SDS011;54392;53.556;49.214;2022-07-30T01:15:29;33.28;;;24.20;;
67562;SDS011;54392;53.556;49.214;2022-07-30T01:17:57;38.53;;;26.23;;
67562;SDS011;54392;53.556;49.214;2022-07-30T01:20:32;25.02;;;21.37;;
67562;SDS011;54392;53.556;49.214;2022-07-30T01:23:09;24.25;;;19.60;;
67562;SDS011;54392;53.556;49.214;2022-07-30T01:28:22;32.00;;;20.98;;
67562;SDS011;54392;53.556;49.214;2022-07-30T01:30:53;25.95;;;18.87;;
67562;SDS011;54392;53.556;49.214;2022-07-30T01:33:26;27.50;;;18.90;;
67562;SDS011;54392;53.556;49.214;2022-07-30T01:35:58;20.92;;;18.67;;
67562;SDS011;54392;53.556;49.214;2022-07-30T01:38:24;31.27;;;19.50;;
67562;SDS011;54392;53.556;49.214;2022-07-30T01:40:59;18.95;;;16.85;;
67562;SDS011;54392;53.556;49.214;2022-07-30T01:43:28;24.98;;;19.45;;
67562;SDS011;54392;53.556;49.214;2022-07-30T01:45:55;21.20;;;16.50;;
67562;SDS011;54392;53.556;49.214;2022-07-30T01:48:25;17.48;;;15.88;;
67562;SDS011;54392;53.556;49.214;2022-07-30T01:50:53;29.70;;;17.42;;
67562;SDS011;54392;53.556;49.214;2022-07-30T01:53:24;24.35;;;17.60;;
67562;SDS011;54392;53.556;49.214;2022-07-30T01:55:53;25.70;;;17.98;;
67562;SDS011;54392;53.556;49.214;2022-07-30T01:58:23;22.62;;;17.00;;
67562;SDS011;54392;53.556;49.214;2022-07-30T02:00:52;25.40;;;18.95;;
67562;SDS011;54392;53.556;49.214;2022-07-30T02:03:23;22.23;;;18.60;;
67562;SDS011;54392;53.556;49.214;2022-07-30T02:05:58;21.92;;;17.48;;
67562;SDS011;54392;53.556;49.214;2022-07-30T02:08:42;30.10;;;20.37;;
67562;SDS011;54392;53.556;49.214;2022-07-30T02:11:16;27.08;;;20.92;;
67562;SDS011;54392;53.556;49.214;2022-07-30T02:14:06;22.55;;;19.42;;
67562;SDS011;54392;53.556;49.214;2022-07-30T02:16:41;28.33;;;21.00;;
67562;SDS011;54392;53.556;49.214;2022-07-30T02:19:19;26.08;;;19.62;;
67562;SDS011;54392;53.556;49.214;2022-07-30T02:21:51;25.55;;;16.60;;
67562;SDS011;54392;53.556;49.214;2022-07-30T02:24:38;19.60;;;17.45;;
67562;SDS011;54392;53.556;49.214;2022-07-30T02:27:12;30.62;;;14.75;;
67562;SDS011;54392;53.556;49.214;2022-07-30T02:29:48;19.37;;;14.43;;
67562;SDS011;54392;53.556;49.214;2022-07-30T02:32:19;31.52;;;21.17;;
67562;SDS011;54392;53.556;49.214;2022-07-30T02:34:51;22.85;;;19.52;;
67562;SDS011;54392;53.556;49.214;2022-07-30T02:37:23;28.52;;;20.83;;
67562;SDS011;54392;53.556;49.214;2022-07-30T02:39:53;32.00;;;21.70;;
67562;SDS011;54392;53.556;49.214;2022-07-30T02:42:23;28.52;;;18.15;;
67562;SDS011;54392;53.556;49.214;2022-07-30T02:44:52;15.07;;;13.23;;
67562;SDS011;54392;53.556;49.214;2022-07-30T02:47:22;26.80;;;12.48;;
67562;SDS011;54392;53.556;49.214;2022-07-30T02:49:54;15.50;;;12.75;;
67562;SDS011;54392;53.556;49.214;2022-07-30T02:52:20;18.00;;;13.18;;
67562;SDS011;54392;53.556;49.214;2022-07-30T02:54:50;22.00;;;12.57;;
67562;SDS011;54392;53.556;49.214;2022-07-30T02:57:17;16.05;;;13.50;;
67562;SDS011;54392;53.556;49.214;2022-07-30T02:59:52;15.25;;;13.15;;
67562;SDS011;54392;53.556;49.214;2022-07-30T03:02:18;14.60;;;12.43;;
67562;SDS011;54392;53.556;49.214;2022-07-30T03:04:47;13.70;;;12.40;;
67562;SDS011;54392;53.556;49.214;2022-07-30T03:07:19;14.57;;;12.98;;
67562;SDS011;54392;53.556;49.214;2022-07-30T03:09:55;12.45;;;11.20;;
67562;SDS011;54392;53.556;49.214;2022-07-30T03:12:25;13.57;;;12.15;;
67562;SDS011;54392;53.556;49.214;2022-07-30T03:14:59;21.67;;;13.60;;
67562;SDS011;54392;53.556;49.214;2022-07-30T03:17:34;20.35;;;12.80;;
67562;SDS011;54392;53.556;49.214;2022-07-30T03:20:05;21.90;;;12.27;;
67562;SDS011;54392;53.556;49.214;2022-07-30T03:22:42;16.95;;;12.70;;
67562;SDS011;54392;53.556;49.214;2022-07-30T03:25:13;15.23;;;12.65;;
67562;SDS011;54392;53.556;49.214;2022-07-30T03:27:43;20.10;;;13.30;;
67562;SDS011;54392;53.556;49.214;2022-07-30T03:30:12;16.77;;;13.82;;
67562;SDS011;54392;53.556;49.214;2022-07-30T03:32:39;14.90;;;12.93;;
67562;SDS011;54392;53.556;49.214;2022-07-30T03:35:06;16.12;;;11.35;;
67562;SDS011;54392;53.556;49.214;2022-07-30T03:37:36;14.50;;;11.77;;
67562;SDS011;54392;53.556;49.214;2022-07-30T03:40:06;23.40;;;13.00;;
67562;SDS011;54392;53.556;49.214;2022-07-30T03:42:33;15.77;;;13.45;;
67562;SDS011;54392;53.556;49.214;2022-07-30T03:45:12;11.93;;;10.85;;
67562;SDS011;54392;53.556;49.214;2022-07-30T03:47:45;13.45;;;12.18;;
67562;SDS011;54392;53.556;49.214;2022-07-30T03:52:48;15.55;;;13.35;;
67562;SDS011;54392;53.556;49.214;2022-07-30T03:55:17;12.35;;;10.68;;
67562;SDS011;54392;53.556;49.214;2022-07-30T03:57:51;15.13;;;12.77;;
67562;SDS011;54392;53.556;49.214;2022-07-30T04:00:22;12.35;;;11.07;;
67562;SDS011;54392;53.556;49.214;2022-07-30T04:02:48;12.68;;;10.38;;
67562;SDS011;54392;53.556;49.214;2022-07-30T04:05:15;11.95;;;10.25;;
67562;SDS011;54392;53.556;49.214;2022-07-30T04:07:46;16.15;;;13.77;;
67562;SDS011;54392;53.556;49.214;2022-07-30T04:10:13;16.83;;;11.63;;
67562;SDS011;54392;53.556;49.214;2022-07-30T04:12:43;12.82;;;11.27;;
67562;SDS011;54392;53.556;49.214;2022-07-30T04:15:09;13.95;;;8.98;;
67562;SDS011;54392;53.556;49.214;2022-07-30T04:17:46;11.68;;;10.02;;
67562;SDS011;54392;53.556;49.214;2022-07-30T04:20:19;11.12;;;9.98;;
67562;SDS011;54392;53.556;49.214;2022-07-30T04:22:51;12.32;;;11.12;;
67562;SDS011;54392;53.556;49.214;2022-07-30T04:25:24;11.85;;;10.65;;
67562;SDS011;54392;53.556;49.214;2022-07-30T04:27:53;14.13;;;11.68;;
67562;SDS011;54392;53.556;49.214;2022-07-30T04:30:23;14.57;;;10.98;;
67562;SDS011;54392;53.556;49.214;2022-07-30T04:32:52;15.23;;;12.65;;
67562;SDS011;54392;53.556;49.214;2022-07-30T04:35:28;13.27;;;11.38;;
67562;SDS011;54392;53.556;49.214;2022-07-30T04:40:29;12.85;;;10.00;;
67562;SDS011;54392;53.556;49.214;2022-07-30T04:42:56;11.45;;;9.38;;
67562;SDS011;54392;53.556;49.214;2022-07-30T04:45:22;11.73;;;10.60;;
67562;SDS011;54392;53.556;49.214;2022-07-30T04:47:48;11.65;;;9.77;;
67562;SDS011;54392;53.556;49.214;2022-07-30T04:50:19;13.00;;;10.57;;
67562;SDS011;54392;53.556;49.214;2022-07-30T04:52:56;14.82;;;9.20;;
67562;SDS011;54392;53.556;49.214;2022-07-30T04:55:47;10.23;;;9.10;;
67562;SDS011;54392;53.556;49.214;2022-07-30T04:58:17;12.13;;;10.40;;
67562;SDS011;54392;53.556;49.214;2022-07-30T05:00:46;14.32;;;10.50;;
67562;SDS011;54392;53.556;49.214;2022-07-30T05:03:16;11.68;;;10.52;;
67562;SDS011;54392;53.556;49.214;2022-07-30T05:05:42;15.40;;;8.82;;
67562;SDS011;54392;53.556;49.214;2022-07-30T05:08:12;13.62;;;9.68;;
67562;SDS011;54392;53.556;49.214;2022-07-30T05:10:38;14.52;;;10.60;;
67562;SDS011;54392;53.556;49.214;2022-07-30T05:13:09;10.48;;;9.30;;
67562;SDS011;54392;53.556;49.214;2022-07-30T05:18:03;10.65;;;9.52;;
67562;SDS011;54392;53.556;49.214;2022-07-30T05:20:29;9.93;;;9.00;;
67562;SDS011;54392;53.556;49.214;2022-07-30T05:23:02;11.30;;;10.30;;
67562;SDS011;54392;53.556;49.214;2022-07-30T05:25:35;11.55;;;10.38;;
67562;SDS011;54392;53.556;49.214;2022-07-30T05:28:02;12.32;;;11.02;;
67562;SDS011;54392;53.556;49.214;2022-07-30T05:30:28;10.85;;;9.70;;
67562;SDS011;54392;53.556;49.214;2022-07-30T05:33:00;12.98;;;10.77;;
67562;SDS011;54392;53.556;49.214;2022-07-30T05:35:35;13.43;;;10.43;;
67562;SDS011;54392;53.556;49.214;2022-07-30T05:38:01;11.77;;;10.57;;
67562;SDS011;54392;53.556;49.214;2022-07-30T06:09:16;17.33;;;9.68;;
67562;SDS011;54392;53.556;49.214;2022-07-30T06:21:33;15.02;;;10.25;;
67562;SDS011;54392;53.556;49.214;2022-07-30T06:26:00;15.50;;;11.35;;
67562;SDS011;54392;53.556;49.214;2022-07-30T06:33:47;12.63;;;8.68;;
67562;SDS011;54392;53.556;49.214;2022-07-30T06:37:39;10.57;;;9.57;;
67562;SDS011;54392;53.556;49.214;2022-07-30T07:42:55;13.18;;;11.45;;
67562;SDS011;54392;53.556;49.214;2022-07-30T07:45:27;12.80;;;9.85;;
67562;SDS011;54392;53.556;49.214;2022-07-30T07:47:58;17.87;;;10.77;;
67562;SDS011;54392;53.556;49.214;2022-07-30T07:50:24;11.63;;;9.40;;
67562;SDS011;54392;53.556;49.214;2022-07-30T07:52:50;16.30;;;10.23;;
67562;SDS011;54392;53.556;49.214;2022-07-30T07:55:17;16.10;;;10.35;;
67562;SDS011;54392;53.556;49.214;2022-07-30T07:57:44;15.93;;;9.30;;
67562;SDS011;54392;53.556;49.214;2022-07-30T08:00:16;10.13;;;9.05;;
67562;SDS011;54392;53.556;49.214;2022-07-30T08:02:48;9.68;;;8.70;;
67562;SDS011;54392;53.556;49.214;2022-07-30T08:05:17;18.83;;;12.20;;
67562;SDS011;54392;53.556;49.214;2022-07-30T08:07:43;14.20;;;11.05;;
67562;SDS011;54392;53.556;49.214;2022-07-30T08:10:18;14.60;;;11.35;;
67562;SDS011;54392;53.556;49.214;2022-07-30T08:12:47;16.48;;;10.85;;
67562;SDS011;54392;53.556;49.214;2022-07-30T08:15:16;11.43;;;10.32;;
67562;SDS011;54392;53.556;49.214;2022-07-30T08:17:45;19.10;;;10.35;;
67562;SDS011;54392;53.556;49.214;2022-07-30T08:20:14;11.90;;;10.10;;
67562;SDS011;54392;53.556;49.214;2022-07-30T08:22:49;11.40;;;10.20;;
67562;SDS011;54392;53.556;49.214;2022-07-30T08:25:15;17.50;;;10.70;;
67562;SDS011;54392;53.556;49.214;2022-07-30T08:27:44;12.27;;;10.10;;
67562;SDS011;54392;53.556;49.214;2022-07-30T08:30:10;12.65;;;10.55;;
67562;SDS011;54392;53.556;49.214;2022-07-30T08:32:37;17.80;;;13.15;;
67562;SDS011;54392;53.556;49.214;2022-07-30T08:35:06;14.15;;;11.95;;
67562;SDS011;54392;53.556;49.214;2022-07-30T08:37:38;18.60;;;11.25;;
67562;SDS011;54392;53.556;49.214;2022-07-30T08:40:07;16.05;;;11.50;;
67562;SDS011;54392;53.556;49.214;2022-07-30T08:42:37;11.98;;;10.43;;
67562;SDS011;54392;53.556;49.214;2022-07-30T08:45:07;13.43;;;10.50;;
67562;SDS011;54392;53.556;49.214;2022-07-30T08:47:39;12.40;;;10.00;;
67562;SDS011;54392;53.556;49.214;2022-07-30T08:50:08;11.23;;;9.88;;
67562;SDS011;54392;53.556;49.214;2022-07-30T08:52:42;15.93;;;9.77;;
67562;SDS011;54392;53.556;49.214;2022-07-30T08:55:08;10.57;;;9.55;;
67562;SDS011;54392;53.556;49.214;2022-07-30T08:57:37;14.52;;;10.57;;
67562;SDS011;54392;53.556;49.214;2022-07-30T09:00:07;11.57;;;9.63;;
67562;SDS011;54392;53.556;49.214;2022-07-30T09:02:43;12.57;;;10.75;;
67562;SDS011;54392;53.556;49.214;2022-07-30T09:05:11;13.07;;;9.15;;
67562;SDS011;54392;53.556;49.214;2022-07-30T09:07:41;11.32;;;9.38;;
67562;SDS011;54392;53.556;49.214;2022-07-30T09:10:12;11.85;;;8.68;;
67562;SDS011;54392;53.556;49.214;2022-07-30T09:12:44;16.23;;;11.07;;
67562;SDS011;54392;53.556;49.214;2022-07-30T09:15:14;17.55;;;10.68;;
67562;SDS011;54392;53.556;49.214;2022-07-30T09:17:55;11.30;;;9.60;;
67562;SDS011;54392;53.556;49.214;2022-07-30T09:20:37;18.58;;;9.70;;
67562;SDS011;54392;53.556;49.214;2022-07-30T09:23:05;16.08;;;10.90;;
67562;SDS011;54392;53.556;49.214;2022-07-30T09:25:52;18.50;;;11.20;;
67562;SDS011;54392;53.556;49.214;2022-07-30T09:28:29;11.60;;;9.93;;
67562;SDS011;54392;53.556;49.214;2022-07-30T09:31:01;12.43;;;10.90;;
67562;SDS011;54392;53.556;49.214;2022-07-30T09:36:02;17.42;;;10.38;;
67562;SDS011;54392;53.556;49.214;2022-07-30T09:41:17;15.25;;;9.70;;
67562;SDS011;54392;53.556;49.214;2022-07-30T09:44:00;10.50;;;9.30;;
67562;SDS011;54392;53.556;49.214;2022-07-30T09:46:41;15.25;;;9.80;;
67562;SDS011;54392;53.556;49.214;2022-07-30T09:49:15;12.30;;;9.50;;
67562;SDS011;54392;53.556;49.214;2022-07-30T09:51:45;10.60;;;9.50;;
67562;SDS011;54392;53.556;49.214;2022-07-30T09:54:13;15.98;;;9.40;;
67562;SDS011;54392;53.556;49.214;2022-07-30T09:56:42;11.45;;;10.25;;
67562;SDS011;54392;53.556;49.214;2022-07-30T09:59:24;10.43;;;9.48;;
67562;SDS011;54392;53.556;49.214;2022-07-30T10:01:57;10.75;;;9.68;;
67562;SDS011;54392;53.556;49.214;2022-07-30T10:04:26;12.73;;;8.90;;
67562;SDS011;54392;53.556;49.214;2022-07-30T10:06:58;11.12;;;8.60;;
67562;SDS011;54392;53.556;49.214;2022-07-30T10:09:31;13.00;;;9.02;;
67562;SDS011;54392;53.556;49.214;2022-07-30T10:11:59;9.05;;;8.18;;
67562;SDS011;54392;53.556;49.214;2022-07-30T10:14:32;11.07;;;9.27;;
67562;SDS011;54392;53.556;49.214;2022-07-30T10:17:05;20.90;;;9.15;;
67562;SDS011;54392;53.556;49.214;2022-07-30T10:19:32;9.90;;;8.25;;
67562;SDS011;54392;53.556;49.214;2022-07-30T10:22:07;8.75;;;7.95;;
67562;SDS011;54392;53.556;49.214;2022-07-30T10:27:02;12.15;;;9.57;;
67562;SDS011;54392;53.556;49.214;2022-07-30T10:29:36;13.25;;;7.82;;
67562;SDS011;54392;53.556;49.214;2022-07-30T10:32:07;12.75;;;7.85;;
67562;SDS011;54392;53.556;49.214;2022-07-30T10:34:37;9.50;;;8.60;;
67562;SDS011;54392;53.556;49.214;2022-07-30T10:37:07;10.70;;;9.57;;
67562;SDS011;54392;53.556;49.214;2022-07-30T10:39:45;12.70;;;9.77;;
67562;SDS011;54392;53.556;49.214;2022-07-30T10:45:17;10.02;;;8.90;;
67562;SDS011;54392;53.556;49.214;2022-07-30T10:47:45;9.82;;;8.50;;
67562;SDS011;54392;53.556;49.214;2022-07-30T10:50:15;11.03;;;8.57;;
67562;SDS011;54392;53.556;49.214;2022-07-30T10:52:50;11.80;;;9.43;;
67562;SDS011;54392;53.556;49.214;2022-07-30T10:55:22;8.15;;;7.32;;
67562;SDS011;54392;53.556;49.214;2022-07-30T10:58:05;11.80;;;7.12;;
67562;SDS011;54392;53.556;49.214;2022-07-30T11:00:35;9.63;;;8.00;;
67562;SDS011;54392;53.556;49.214;2022-07-30T11:03:21;9.68;;;8.68;;
67562;SDS011;54392;53.556;49.214;2022-07-30T11:08:34;11.68;;;7.87;;
67562;SDS011;54392;53.556;49.214;2022-07-30T11:11:05;7.03;;;6.35;;
67562;SDS011;54392;53.556;49.214;2022-07-30T11:13:58;8.82;;;7.70;;
67562;SDS011;54392;53.556;49.214;2022-07-30T11:19:01;9.38;;;7.43;;
67562;SDS011;54392;53.556;49.214;2022-07-30T11:21:41;16.33;;;8.27;;
67562;SDS011;54392;53.556;49.214;2022-07-30T11:30:53;8.20;;;7.37;;
67562;SDS011;54392;53.556;49.214;2022-07-30T11:35:32;12.00;;;8.20;;
67562;SDS011;54392;53.556;49.214;2022-07-30T11:38:03;8.30;;;6.05;;
67562;SDS011;54392;53.556;49.214;2022-07-30T11:40:34;13.85;;;8.25;;
67562;SDS011;54392;53.556;49.214;2022-07-30T11:43:15;7.45;;;6.75;;
67562;SDS011;54392;53.556;49.214;2022-07-30T11:46:06;9.18;;;7.50;;
67562;SDS011;54392;53.556;49.214;2022-07-30T11:48:37;8.63;;;7.82;;
67562;SDS011;54392;53.556;49.214;2022-07-30T11:51:08;11.35;;;8.00;;
67562;SDS011;54392;53.556;49.214;2022-07-30T11:53:34;11.10;;;7.37;;
67562;SDS011;54392;53.556;49.214;2022-07-30T11:56:05;7.82;;;6.20;;
67562;SDS011;54392;53.556;49.214;2022-07-30T11:58:35;8.43;;;7.72;;
67562;SDS011;54392;53.556;49.214;2022-07-30T12:01:12;8.77;;;7.68;;
67562;SDS011;54392;53.556;49.214;2022-07-30T12:03:49;8.18;;;7.37;;
67562;SDS011;54392;53.556;49.214;2022-07-30T12:06:19;8.35;;;7.55;;
67562;SDS011;54392;53.556;49.214;2022-07-30T12:08:46;12.30;;;7.28;;
67562;SDS011;54392;53.556;49.214;2022-07-30T12:11:16;9.63;;;8.63;;
67562;SDS011;54392;53.556;49.214;2022-07-30T12:13:55;9.45;;;7.15;;
67562;SDS011;54392;53.556;49.214;2022-07-30T12:16:26;11.02;;;8.77;;
67562;SDS011;54392;53.556;49.214;2022-07-30T12:19:16;9.40;;;6.95;;
67562;SDS011;54392;53.556;49.214;2022-07-30T12:21:41;8.50;;;7.70;;
67562;SDS011;54392;53.556;49.214;2022-07-30T12:24:13;10.35;;;7.45;;
67562;SDS011;54392;53.556;49.214;2022-07-30T12:26:42;9.57;;;8.37;;
67562;SDS011;54392;53.556;49.214;2022-07-30T12:29:19;8.98;;;8.13;;
67562;SDS011;54392;53.556;49.214;2022-07-30T12:31:48;8.95;;;7.78;;
67562;SDS011;54392;53.556;49.214;2022-07-30T12:36:50;9.77;;;8.43;;
67562;SDS011;54392;53.556;49.214;2022-07-30T12:39:20;8.10;;;7.40;;
67562;SDS011;54392;53.556;49.214;2022-07-30T12:41:53;9.02;;;8.15;;
67562;SDS011;54392;53.556;49.214;2022-07-30T12:44:39;8.77;;;7.87;;
67562;SDS011;54392;53.556;49.214;2022-07-30T12:49:52;7.93;;;7.22;;
67562;SDS011;54392;53.556;49.214;2022-07-30T12:52:22;8.23;;;6.25;;
67562;SDS011;54392;53.556;49.214;2022-07-30T12:58:00;8.20;;;7.40;;
67562;SDS011;54392;53.556;49.214;2022-07-30T13:00:32;9.60;;;8.45;;
67562;SDS011;54392;53.556;49.214;2022-07-30T13:04:06;10.40;;;8.00;;
67562;SDS011;54392;53.556;49.214;2022-07-30T13:06:32;7.72;;;6.95;;
67562;SDS011;54392;53.556;49.214;2022-07-30T13:09:12;18.60;;;7.18;;
67562;SDS011;54392;53.556;49.214;2022-07-30T13:11:47;10.40;;;7.78;;
67562;SDS011;54392;53.556;49.214;2022-07-30T13:14:15;18.60;;;7.90;;
67562;SDS011;54392;53.556;49.214;2022-07-30T13:16:47;11.90;;;7.53;;
67562;SDS011;54392;53.556;49.214;2022-07-30T13:19:13;7.15;;;6.45;;
67562;SDS011;54392;53.556;49.214;2022-07-30T13:21:42;6.07;;;5.15;;
67562;SDS011;54392;53.556;49.214;2022-07-30T13:24:13;8.57;;;7.32;;
67562;SDS011;54392;53.556;49.214;2022-07-30T13:26:45;10.30;;;8.68;;
67562;SDS011;54392;53.556;49.214;2022-07-30T13:29:11;9.43;;;7.80;;
67562;SDS011;54392;53.556;49.214;2022-07-30T13:31:38;8.18;;;7.00;;
67562;SDS011;54392;53.556;49.214;2022-07-30T13:36:33;9.55;;;8.68;;
67562;SDS011;54392;53.556;49.214;2022-07-30T13:39:06;8.43;;;7.60;;
67562;SDS011;54392;53.556;49.214;2022-07-30T13:44:02;10.70;;;7.68;;
67562;SDS011;54392;53.556;49.214;2022-07-30T13:46:32;7.75;;;7.05;;
67562;SDS011;54392;53.556;49.214;2022-07-30T13:49:03;8.70;;;7.90;;
67562;SDS011;54392;53.556;49.214;2022-07-30T13:51:32;10.00;;;7.05;;
67562;SDS011;54392;53.556;49.214;2022-07-30T13:53:59;16.08;;;8.48;;
67562;SDS011;54392;53.556;49.214;2022-07-30T13:56:31;8.48;;;6.72;;
67562;SDS011;54392;53.556;49.214;2022-07-30T13:58:58;14.18;;;8.10;;
67562;SDS011;54392;53.556;49.214;2022-07-30T14:01:33;10.32;;;8.15;;
67562;SDS011;54392;53.556;49.214;2022-07-30T14:04:00;12.77;;;8.00;;
67562;SDS011;54392;53.556;49.214;2022-07-30T14:06:26;8.73;;;7.75;;
67562;SDS011;54392;53.556;49.214;2022-07-30T14:11:36;7.97;;;7.27;;
67562;SDS011;54392;53.556;49.214;2022-07-30T14:14:06;9.93;;;8.50;;
67562;SDS011;54392;53.556;49.214;2022-07-30T14:16:35;10.07;;;9.00;;
67562;SDS011;54392;53.556;49.214;2022-07-30T14:19:07;9.55;;;8.23;;
67562;SDS011;54392;53.556;49.214;2022-07-30T14:21:35;9.45;;;8.52;;
67562;SDS011;54392;53.556;49.214;2022-07-30T14:24:04;17.23;;;8.13;;
67562;SDS011;54392;53.556;49.214;2022-07-30T14:26:31;8.10;;;7.28;;
67562;SDS011;54392;53.556;49.214;2022-07-30T14:29:05;9.80;;;8.68;;
67562;SDS011;54392;53.556;49.214;2022-07-30T14:31:36;11.32;;;8.55;;
67562;SDS011;54392;53.556;49.214;2022-07-30T14:34:08;10.73;;;9.63;;
67562;SDS011;54392;53.556;49.214;2022-07-30T14:36:34;10.82;;;9.20;;
67562;SDS011;54392;53.556;49.214;2022-07-30T14:39:04;9.75;;;8.75;;
67562;SDS011;54392;53.556;49.214;2022-07-30T14:41:33;9.88;;;8.10;;
67562;SDS011;54392;53.556;49.214;2022-07-30T14:44:01;13.25;;;8.00;;
67562;SDS011;54392;53.556;49.214;2022-07-30T14:46:28;10.77;;;9.68;;
67562;SDS011;54392;53.556;49.214;2022-07-30T14:48:57;7.75;;;7.05;;
67562;SDS011;54392;53.556;49.214;2022-07-30T14:51:24;20.50;;;8.50;;
67562;SDS011;54392;53.556;49.214;2022-07-30T14:53:53;8.70;;;7.07;;
67562;SDS011;54392;53.556;49.214;2022-07-30T14:56:25;11.15;;;7.45;;
67562;SDS011;54392;53.556;49.214;2022-07-30T14:59:12;18.12;;;9.35;;
67562;SDS011;54392;53.556;49.214;2022-07-30T15:01:37;10.88;;;9.77;;
67562;SDS011;54392;53.556;49.214;2022-07-30T15:04:09;11.55;;;9.65;;
67562;SDS011;54392;53.556;49.214;2022-07-30T15:06:42;13.02;;;9.73;;
67562;SDS011;54392;53.556;49.214;2022-07-30T15:09:08;13.82;;;12.35;;
67562;SDS011;54392;53.556;49.214;2022-07-30T15:11:35;12.30;;;10.15;;
67562;SDS011;54392;53.556;49.214;2022-07-30T15:14:01;9.60;;;8.70;;
67562;SDS011;54392;53.556;49.214;2022-07-30T15:16:30;14.93;;;10.75;;
67562;SDS011;54392;53.556;49.214;2022-07-30T15:19:10;11.30;;;9.15;;
67562;SDS011;54392;53.556;49.214;2022-07-30T15:21:42;12.35;;;8.63;;
67562;SDS011;54392;53.556;49.214;2022-07-30T15:24:14;12.80;;;9.13;;
67562;SDS011;54392;53.556;49.214;2022-07-30T15:26:47;12.73;;;10.00;;
67562;SDS011;54392;53.556;49.214;2022-07-30T15:29:16;12.18;;;10.38;;
67562;SDS011;54392;53.556;49.214;2022-07-30T15:31:50;12.05;;;10.85;;
67562;SDS011;54392;53.556;49.214;2022-07-30T15:34:16;18.95;;;12.35;;
67562;SDS011;54392;53.556;49.214;2022-07-30T15:37:05;24.75;;;12.60;;
67562;SDS011;54392;53.556;49.214;2022-07-30T15:39:40;16.20;;;14.38;;
67562;SDS011;54392;53.556;49.214;2022-07-30T15:42:17;16.37;;;12.10;;
67562;SDS011;54392;53.556;49.214;2022-07-30T15:44:50;17.98;;;15.32;;
67562;SDS011;54392;53.556;49.214;2022-07-30T15:47:19;17.17;;;14.55;;
67562;SDS011;54392;53.556;49.214;2022-07-30T15:49:53;22.35;;;16.70;;
67562;SDS011;54392;53.556;49.214;2022-07-30T15:52:25;19.55;;;16.42;;
67562;SDS011;54392;53.556;49.214;2022-07-30T15:54:51;20.98;;;13.82;;
67562;SDS011;54392;53.556;49.214;2022-07-30T15:57:17;22.48;;;14.07;;
67562;SDS011;54392;53.556;49.214;2022-07-30T15:59:43;20.80;;;15.45;;
67562;SDS011;54392;53.556;49.214;2022-07-30T16:02:12;18.42;;;13.05;;
67562;SDS011;54392;53.556;49.214;2022-07-30T16:04:41;15.30;;;13.68;;
67562;SDS011;54392;53.556;49.214;2022-07-30T16:07:12;22.00;;;15.17;;
67562;SDS011;54392;53.556;49.214;2022-07-30T16:09:38;15.43;;;13.75;;
67562;SDS011;54392;53.556;49.214;2022-07-30T16:12:08;21.75;;;14.30;;
67562;SDS011;54392;53.556;49.214;2022-07-30T16:14:46;22.35;;;15.88;;
67562;SDS011;54392;53.556;49.214;2022-07-30T16:17:13;22.13;;;17.42;;
67562;SDS011;54392;53.556;49.214;2022-07-30T16:19:41;16.80;;;12.82;;
67562;SDS011;54392;53.556;49.214;2022-07-30T16:22:15;19.55;;;15.18;;
67562;SDS011;54392;53.556;49.214;2022-07-30T16:24:43;13.82;;;11.80;;
67562;SDS011;54392;53.556;49.214;2022-07-30T16:27:09;14.77;;;9.55;;
67562;SDS011;54392;53.556;49.214;2022-07-30T16:29:41;15.07;;;10.02;;
67562;SDS011;54392;53.556;49.214;2022-07-30T16:32:07;12.43;;;9.18;;
67562;SDS011;54392;53.556;49.214;2022-07-30T16:34:35;9.38;;;8.43;;
67562;SDS011;54392;53.556;49.214;2022-07-30T16:37:07;10.30;;;9.15;;
67562;SDS011;54392;53.556;49.214;2022-07-30T16:39:34;12.13;;;10.80;;
67562;SDS011;54392;53.556;49.214;2022-07-30T16:42:00;17.52;;;11.12;;
67562;SDS011;54392;53.556;49.214;2022-07-30T16:44:31;18.30;;;10.30;;
67562;SDS011;54392;53.556;49.214;2022-07-30T16:46:59;11.77;;;10.55;;
67562;SDS011;54392;53.556;49.214;2022-07-30T16:49:40;14.48;;;10.68;;
67562;SDS011;54392;53.556;49.214;2022-07-30T16:52:09;13.10;;;11.48;;
67562;SDS011;54392;53.556;49.214;2022-07-30T16:54:35;9.43;;;8.38;;
67562;SDS011;54392;53.556;49.214;2022-07-30T16:57:02;12.60;;;8.95;;
67562;SDS011;54392;53.556;49.214;2022-07-30T16:59:31;9.48;;;8.63;;
67562;SDS011;54392;53.556;49.214;2022-07-30T17:02:00;19.98;;;9.80;;
67562;SDS011;54392;53.556;49.214;2022-07-30T17:04:27;9.10;;;8.23;;
67562;SDS011;54392;53.556;49.214;2022-07-30T17:06:54;8.98;;;8.15;;
67562;SDS011;54392;53.556;49.214;2022-07-30T17:09:20;16.15;;;9.00;;
67562;SDS011;54392;53.556;49.214;2022-07-30T17:11:46;20.98;;;10.38;;
67562;SDS011;54392;53.556;49.214;2022-07-30T17:14:15;10.73;;;8.85;;
67562;SDS011;54392;53.556;49.214;2022-07-30T17:16:44;12.07;;;9.77;;
67562;SDS011;54392;53.556;49.214;2022-07-30T17:19:13;9.38;;;8.48;;
67562;SDS011;54392;53.556;49.214;2022-07-30T17:21:42;11.02;;;9.65;;